createdAt,value
2022-09-30T00:00:04.063Z,100188.63
2022-09-30T00:00:30.368Z,100177.56
2022-09-30T00:00:51.937Z,100197.56
2022-09-30T00:01:13.584Z,100195.75
2022-09-30T00:01:37.528Z,100194.19
2022-09-30T00:01:59.178Z,100192.47
2022-09-30T00:02:20.851Z,100187.94
2022-09-30T00:02:42.441Z,100193.25
2022-09-30T00:03:05.274Z,100185.34
2022-09-30T00:03:28.914Z,100191.34
2022-09-30T00:03:50.512Z,100188.78
2022-09-30T00:04:15.413Z,100192.91
2022-09-30T00:04:39.540Z,100191.22
2022-09-30T00:05:01.101Z,100191.06
2022-09-30T00:05:22.705Z,100188.38
2022-09-30T00:05:44.276Z,100196.22
2022-09-30T00:06:09.128Z,100189.00
2022-09-30T00:06:31.856Z,100192.47
2022-09-30T00:06:54.327Z,100196.06
2022-09-30T00:07:16.022Z,100194.28
2022-09-30T00:07:38.548Z,100192.47
2022-09-30T00:08:00.567Z,100195.03
2022-09-30T00:08:22.226Z,100195.91
2022-09-30T00:08:43.919Z,100187.97
2022-09-30T00:09:05.907Z,100193.22
2022-09-30T00:09:28.495Z,100198.53
2022-09-30T00:09:50.270Z,100188.78
2022-09-30T00:10:13.589Z,100203.81
2022-09-30T00:10:35.398Z,100181.31
2022-09-30T00:11:01.488Z,100189.00
2022-09-30T00:11:27.172Z,100203.91
2022-09-30T00:11:48.822Z,100202.28
2022-09-30T00:12:10.603Z,100203.28
2022-09-30T00:12:32.192Z,100200.72
2022-09-30T00:12:54.873Z,100200.91
2022-09-30T00:13:17.401Z,100200.84
2022-09-30T00:13:40.402Z,100196.56
2022-09-30T00:14:02.842Z,100201.03
2022-09-30T00:14:25.422Z,100205.31
2022-09-30T00:14:47.024Z,100193.72
2022-09-30T00:15:09.425Z,100201.72
2022-09-30T00:15:31.084Z,100207.28
2022-09-30T00:15:52.722Z,100197.00
2022-09-30T00:16:16.449Z,100207.53
2022-09-30T00:16:38.175Z,100207.53
2022-09-30T00:17:00.022Z,100201.56
2022-09-30T00:17:21.588Z,100200.63
2022-09-30T00:17:43.952Z,100200.63
2022-09-30T00:18:06.533Z,100194.31
2022-09-30T00:18:28.701Z,100207.81
2022-09-30T00:18:53.485Z,100216.94
2022-09-30T00:19:15.450Z,100182.88
2022-09-30T00:19:39.628Z,100200.75
2022-09-30T00:20:01.804Z,100206.97
2022-09-30T00:20:23.369Z,100186.97
2022-09-30T00:20:44.982Z,100206.25
2022-09-30T00:21:08.496Z,100201.09
2022-09-30T00:21:30.464Z,100209.94
2022-09-30T00:22:21.953Z,100207.06
2022-09-30T00:22:44.854Z,100197.47
2022-09-30T00:23:06.391Z,100195.66
2022-09-30T00:23:28.565Z,100200.94
2022-09-30T00:23:50.173Z,100202.72
2022-09-30T00:24:12.866Z,100199.13
2022-09-30T00:24:34.437Z,100202.66
2022-09-30T00:24:56.001Z,100197.41
2022-09-30T00:25:17.556Z,100200.88
2022-09-30T00:25:40.237Z,100199.06
2022-09-30T00:26:05.069Z,100208.00
2022-09-30T00:26:26.932Z,100202.50
2022-09-30T00:26:49.672Z,100203.28
2022-09-30T00:27:12.207Z,100196.16
2022-09-30T00:27:34.059Z,100199.66
2022-09-30T00:27:55.649Z,100199.75
2022-09-30T00:28:17.502Z,100202.50
2022-09-30T00:28:40.602Z,100200.13
2022-09-30T00:29:03.749Z,100205.31
2022-09-30T00:29:25.563Z,100200.22
2022-09-30T00:29:47.245Z,100207.25
2022-09-30T00:30:09.798Z,100206.56
2022-09-30T00:30:32.381Z,100207.44
2022-09-30T00:30:54.047Z,100205.56
2022-09-30T00:31:17.131Z,100204.53
2022-09-30T00:31:39.883Z,100207.06
2022-09-30T00:32:02.018Z,100206.09
2022-09-30T00:32:23.640Z,100207.13
2022-09-30T00:32:45.236Z,100207.81
2022-09-30T00:33:07.136Z,100208.75
2022-09-30T00:33:30.076Z,100214.88
2022-09-30T00:34:06.799Z,100216.63
2022-09-30T00:34:28.569Z,100210.66
2022-09-30T00:34:52.508Z,100214.19
2022-09-30T00:35:14.254Z,100214.44
2022-09-30T00:35:36.584Z,100215.19
2022-09-30T00:35:58.150Z,100203.13
2022-09-30T00:36:20.694Z,100219.53
2022-09-30T00:36:45.268Z,100213.31
2022-09-30T00:37:08.731Z,100221.38
2022-09-30T00:37:30.346Z,100210.97
2022-09-30T00:37:52.071Z,100226.03
2022-09-30T00:38:13.656Z,100223.34
2022-09-30T00:38:35.263Z,100212.69
2022-09-30T00:38:57.794Z,100222.41
2022-09-30T00:39:21.863Z,100230.47
2022-09-30T00:39:43.532Z,100224.28
2022-09-30T00:40:06.845Z,100226.16
2022-09-30T00:40:30.093Z,100226.47
2022-09-30T00:40:51.963Z,100231.66
2022-09-30T00:41:13.584Z,100225.50
2022-09-30T00:41:37.529Z,100228.28
2022-09-30T00:42:01.725Z,100229.91
2022-09-30T00:42:23.321Z,100226.31
2022-09-30T00:42:46.193Z,100228.19
2022-09-30T00:43:15.013Z,100228.34
2022-09-30T00:43:42.188Z,100218.78
2022-09-30T00:44:37.142Z,100221.75
2022-09-30T00:45:06.546Z,100231.41
2022-09-30T00:45:32.588Z,100228.81
2022-09-30T00:45:57.017Z,100222.03
2022-09-30T00:46:24.190Z,100223.59
2022-09-30T00:46:45.845Z,100225.44
2022-09-30T00:47:34.402Z,100220.16
2022-09-30T00:48:05.942Z,100214.25
2022-09-30T00:48:33.705Z,100229.72
2022-09-30T00:48:58.993Z,100216.34
2022-09-30T00:49:23.761Z,100225.91
2022-09-30T00:49:47.020Z,100222.38
2022-09-30T00:50:27.968Z,100216.56
2022-09-30T00:50:55.420Z,100221.69
2022-09-30T00:51:18.762Z,100226.06
2022-09-30T00:51:45.493Z,100220.66
2022-09-30T00:52:07.072Z,100221.56
2022-09-30T00:52:29.896Z,100225.28
2022-09-30T00:52:56.637Z,100219.00
2022-09-30T00:53:22.136Z,100218.06
2022-09-30T00:53:50.464Z,100217.91
2022-09-30T00:54:16.716Z,100220.41
2022-09-30T00:54:39.263Z,100218.84
2022-09-30T00:55:04.672Z,100221.56
2022-09-30T00:55:34.254Z,100224.97
2022-09-30T00:56:01.291Z,100231.31
2022-09-30T00:56:25.485Z,100228.50
2022-09-30T00:56:52.360Z,100225.63
2022-09-30T00:57:14.071Z,100221.44
2022-09-30T00:57:37.549Z,100228.63
2022-09-30T00:58:02.740Z,100224.19
2022-09-30T00:58:30.101Z,100223.31
2022-09-30T00:58:58.150Z,100216.41
2022-09-30T00:59:26.014Z,100234.13
2022-09-30T00:59:50.161Z,100230.44
2022-09-30T01:00:12.178Z,100231.25
2022-09-30T01:00:34.376Z,100230.53
2022-09-30T01:01:00.140Z,100226.13
2022-09-30T01:01:22.905Z,100220.09
2022-09-30T01:01:44.689Z,100224.56
2022-09-30T01:02:06.569Z,100227.00
2022-09-30T01:02:28.291Z,100211.25
2022-09-30T01:02:51.373Z,100218.84
2022-09-30T01:03:13.131Z,100225.97
2022-09-30T01:03:38.358Z,100233.97
2022-09-30T01:04:04.262Z,100218.16
2022-09-30T01:04:29.041Z,100225.84
2022-09-30T01:04:50.736Z,100222.31
2022-09-30T01:05:13.420Z,100219.72
2022-09-30T01:05:36.378Z,100222.44
2022-09-30T01:05:58.988Z,100227.72
2022-09-30T01:06:22.505Z,100226.63
2022-09-30T01:06:44.396Z,100218.72
2022-09-30T01:07:08.310Z,100232.75
2022-09-30T01:07:31.144Z,100225.63
2022-09-30T01:07:56.663Z,100221.97
2022-09-30T01:08:20.823Z,100224.44
2022-09-30T01:08:44.765Z,100224.34
2022-09-30T01:09:06.655Z,100228.03
2022-09-30T01:09:29.104Z,100222.72
2022-09-30T01:09:51.733Z,100227.13
2022-09-30T01:10:13.299Z,100217.38
2022-09-30T01:10:36.090Z,100226.94
2022-09-30T01:10:57.620Z,100222.72
2022-09-30T01:11:22.236Z,100221.69
2022-09-30T01:11:44.118Z,100215.72
2022-09-30T01:12:10.533Z,100222.84
2022-09-30T01:12:32.432Z,100213.38
2022-09-30T01:12:54.569Z,100215.09
2022-09-30T01:13:18.709Z,100217.75
2022-09-30T01:13:42.938Z,100218.72
2022-09-30T01:14:11.055Z,100211.94
2022-09-30T01:14:33.205Z,100204.19
2022-09-30T01:14:58.188Z,100221.38
2022-09-30T01:15:24.680Z,100216.97
2022-09-30T01:16:07.043Z,100216.88
2022-09-30T01:16:43.120Z,100223.94
2022-09-30T01:17:14.977Z,100222.94
2022-09-30T01:17:46.944Z,100200.25
2022-09-30T01:18:17.276Z,100222.72
2022-09-30T01:18:53.710Z,100205.53
2022-09-30T01:19:28.367Z,100228.91
2022-09-30T01:20:17.206Z,100223.47
2022-09-30T01:21:08.497Z,100221.22
2022-09-30T01:22:00.891Z,100213.69
2022-09-30T01:22:33.643Z,100201.81
2022-09-30T01:23:15.601Z,100227.72
2022-09-30T01:24:17.752Z,100221.69
2022-09-30T01:25:13.536Z,100228.00
2022-09-30T01:26:06.989Z,100225.22
2022-09-30T01:26:46.642Z,100224.25
2022-09-30T01:27:18.546Z,100228.75
2022-09-30T01:27:56.722Z,100233.19
2022-09-30T01:28:50.908Z,100232.69
2022-09-30T01:29:43.867Z,100233.31
2022-09-30T01:30:18.764Z,100238.00
2022-09-30T01:30:55.647Z,100236.16
2022-09-30T01:31:28.216Z,100241.72
2022-09-30T01:31:56.916Z,100247.09
2022-09-30T01:32:29.614Z,100243.78
2022-09-30T01:33:32.569Z,100247.53
2022-09-30T01:34:01.418Z,100249.34
2022-09-30T01:34:37.421Z,100248.41
2022-09-30T01:35:08.249Z,100245.97
2022-09-30T01:35:42.068Z,100245.09
2022-09-30T01:36:20.727Z,100247.59
2022-09-30T01:36:59.276Z,100249.28
2022-09-30T01:37:26.417Z,100247.53
2022-09-30T01:37:59.826Z,100249.28
2022-09-30T01:38:29.282Z,100242.16
2022-09-30T01:39:01.744Z,100236.94
2022-09-30T01:39:31.009Z,100248.25
2022-09-30T01:40:03.632Z,100257.13
2022-09-30T01:40:34.292Z,100238.47
2022-09-30T01:41:04.001Z,100245.53
2022-09-30T01:41:28.121Z,100242.88
2022-09-30T01:41:56.051Z,100250.00
2022-09-30T01:42:26.012Z,100250.84
2022-09-30T01:42:55.981Z,100244.94
2022-09-30T01:43:30.284Z,100247.72
2022-09-30T01:44:03.911Z,100245.22
2022-09-30T01:44:35.168Z,100227.19
2022-09-30T01:45:04.251Z,100244.63
2022-09-30T01:45:35.042Z,100247.13
2022-09-30T01:46:03.045Z,100246.97
2022-09-30T01:46:33.698Z,100250.38
2022-09-30T01:47:02.366Z,100241.56
2022-09-30T01:47:26.429Z,100236.41
2022-09-30T01:47:51.447Z,100236.25
2022-09-30T01:48:20.573Z,100237.19
2022-09-30T01:48:50.492Z,100244.25
2022-09-30T01:49:21.302Z,100242.38
2022-09-30T01:49:47.081Z,100237.97
2022-09-30T01:50:13.268Z,100230.22
2022-09-30T01:50:43.417Z,100237.06
2022-09-30T01:51:10.697Z,100238.75
2022-09-30T01:51:39.999Z,100242.28
2022-09-30T01:52:06.725Z,100242.78
2022-09-30T01:52:36.549Z,100237.47
2022-09-30T01:53:10.955Z,100240.00
2022-09-30T01:53:40.325Z,100240.94
2022-09-30T01:54:08.685Z,100242.56
2022-09-30T01:54:40.175Z,100233.81
2022-09-30T01:55:07.939Z,100235.66
2022-09-30T01:55:36.018Z,100236.47
2022-09-30T01:56:01.904Z,100242.66
2022-09-30T01:56:30.999Z,100239.84
2022-09-30T01:56:57.085Z,100236.94
2022-09-30T01:57:22.801Z,100235.31
2022-09-30T01:57:48.394Z,100243.09
2022-09-30T01:58:17.542Z,100238.47
2022-09-30T01:58:44.976Z,100242.06
2022-09-30T01:59:11.769Z,100232.38
2022-09-30T01:59:38.702Z,100243.78
2022-09-30T02:00:07.175Z,100227.97
2022-09-30T02:00:37.312Z,100230.53
2022-09-30T02:01:06.110Z,100228.84
2022-09-30T02:01:31.650Z,100236.59
2022-09-30T02:01:58.435Z,100237.69
2022-09-30T02:02:25.303Z,100236.03
2022-09-30T02:02:52.014Z,100235.03
2022-09-30T02:03:17.766Z,100236.94
2022-09-30T02:03:45.795Z,100238.41
2022-09-30T02:04:11.370Z,100236.81
2022-09-30T02:04:38.272Z,100238.75
2022-09-30T02:05:03.305Z,100229.25
2022-09-30T02:05:33.299Z,100235.44
2022-09-30T02:06:02.763Z,100241.56
2022-09-30T02:06:29.141Z,100237.47
2022-09-30T02:06:56.144Z,100242.66
2022-09-30T02:07:25.045Z,100242.78
2022-09-30T02:07:51.982Z,100245.44
2022-09-30T02:08:23.880Z,100242.78
2022-09-30T02:08:50.267Z,100235.66
2022-09-30T02:09:14.829Z,100247.06
2022-09-30T02:09:41.155Z,100242.66
2022-09-30T02:10:09.404Z,100243.53
2022-09-30T02:10:34.686Z,100246.09
2022-09-30T02:11:00.936Z,100243.38
2022-09-30T02:11:26.299Z,100229.41
2022-09-30T02:11:49.267Z,100240.72
2022-09-30T02:12:15.997Z,100239.91
2022-09-30T02:12:46.538Z,100239.91
2022-09-30T02:13:15.306Z,100243.38
2022-09-30T02:13:42.349Z,100234.56
2022-09-30T02:14:11.275Z,100236.25
2022-09-30T02:14:41.986Z,100239.06
2022-09-30T02:15:08.235Z,100234.72
2022-09-30T02:15:40.251Z,100238.97
2022-09-30T02:16:13.034Z,100243.59
2022-09-30T02:16:40.660Z,100241.94
2022-09-30T02:17:06.024Z,100242.13
2022-09-30T02:17:33.830Z,100225.66
2022-09-30T02:17:59.946Z,100228.34
2022-09-30T02:18:30.624Z,100246.53
2022-09-30T02:18:55.636Z,100243.16
2022-09-30T02:19:20.496Z,100242.22
2022-09-30T02:19:45.542Z,100240.34
2022-09-30T02:20:13.773Z,100231.88
2022-09-30T02:20:40.678Z,100202.56
2022-09-30T02:21:04.393Z,100249.19
2022-09-30T02:21:31.251Z,100244.91
2022-09-30T02:21:57.749Z,100247.47
2022-09-30T02:22:24.446Z,100247.69
2022-09-30T02:22:50.597Z,100248.66
2022-09-30T02:23:17.316Z,100237.19
2022-09-30T02:23:45.028Z,100235.00
2022-09-30T02:24:11.315Z,100242.56
2022-09-30T02:24:36.951Z,100247.91
2022-09-30T02:25:04.520Z,100247.09
2022-09-30T02:25:32.116Z,100243.47
2022-09-30T02:26:04.108Z,100243.31
2022-09-30T02:26:30.397Z,100247.84
2022-09-30T02:26:57.084Z,100188.94
2022-09-30T02:27:24.229Z,100200.31
2022-09-30T02:27:50.750Z,100239.84
2022-09-30T02:28:18.750Z,100220.16
2022-09-30T02:28:45.307Z,100241.84
2022-09-30T02:29:13.309Z,100232.25
2022-09-30T02:29:39.587Z,100240.19
2022-09-30T02:30:04.047Z,100239.97
2022-09-30T02:30:26.186Z,100240.91
2022-09-30T02:30:54.360Z,100244.44
2022-09-30T02:31:22.281Z,100234.94
2022-09-30T02:31:48.244Z,100223.69
2022-09-30T02:32:18.421Z,100245.34
2022-09-30T02:32:47.373Z,100242.91
2022-09-30T02:33:14.003Z,100246.44
2022-09-30T02:33:40.550Z,100235.06
2022-09-30T02:34:09.045Z,100240.19
2022-09-30T02:34:36.080Z,100230.75
2022-09-30T02:35:03.062Z,100248.03
2022-09-30T02:35:30.765Z,100223.56
2022-09-30T02:35:59.706Z,100240.97
2022-09-30T02:36:27.524Z,100230.53
2022-09-30T02:36:55.017Z,100230.75
2022-09-30T02:37:21.513Z,100230.59
2022-09-30T02:37:51.342Z,100234.06
2022-09-30T02:38:18.408Z,100247.22
2022-09-30T02:38:44.908Z,100241.03
2022-09-30T02:39:11.714Z,100248.38
2022-09-30T02:39:40.703Z,100239.72
2022-09-30T02:40:10.271Z,100243.25
2022-09-30T02:40:37.076Z,100238.03
2022-09-30T02:41:06.772Z,100247.66
2022-09-30T02:41:33.600Z,100252.19
2022-09-30T02:42:04.758Z,100253.03
2022-09-30T02:42:30.079Z,100246.88
2022-09-30T02:42:51.977Z,100247.81
2022-09-30T02:43:15.415Z,100247.88
2022-09-30T02:43:40.581Z,100251.38
2022-09-30T02:44:05.505Z,100254.06
2022-09-30T02:44:27.308Z,100254.97
2022-09-30T02:44:51.037Z,100254.91
2022-09-30T02:45:16.381Z,100246.34
2022-09-30T02:45:47.277Z,100249.72
2022-09-30T02:46:18.804Z,100246.44
2022-09-30T02:46:50.685Z,100251.38
2022-09-30T02:47:18.918Z,100251.38
2022-09-30T02:47:54.467Z,100253.91
2022-09-30T02:48:27.540Z,100251.25
2022-09-30T02:48:58.765Z,100248.06
2022-09-30T02:49:28.271Z,100259.53
2022-09-30T02:49:56.332Z,100256.72
2022-09-30T02:50:26.907Z,100250.75
2022-09-30T02:50:53.401Z,100256.13
2022-09-30T02:51:22.138Z,100256.28
2022-09-30T02:51:56.696Z,100258.78
2022-09-30T02:52:27.673Z,100256.22
2022-09-30T02:53:01.860Z,100259.84
2022-09-30T02:53:27.670Z,100253.75
2022-09-30T02:53:57.490Z,100259.00
2022-09-30T02:54:28.936Z,100261.81
2022-09-30T02:55:02.498Z,100263.53
2022-09-30T02:55:31.374Z,100258.47
2022-09-30T02:56:09.601Z,100262.78
2022-09-30T02:56:46.004Z,100259.41
2022-09-30T02:57:19.363Z,100261.22
2022-09-30T02:57:53.532Z,100259.47
2022-09-30T02:58:18.523Z,100243.06
2022-09-30T02:58:43.293Z,100263.81
2022-09-30T02:59:05.221Z,100256.09
2022-09-30T02:59:28.742Z,100257.56
2022-09-30T02:59:52.296Z,100226.53
2022-09-30T03:00:14.569Z,100254.09
2022-09-30T03:00:36.390Z,100248.25
2022-09-30T03:01:00.129Z,100253.00
2022-09-30T03:01:22.358Z,100251.50
2022-09-30T03:01:45.731Z,100248.63
2022-09-30T03:02:07.447Z,100259.00
2022-09-30T03:02:29.222Z,100239.19
2022-09-30T03:02:57.338Z,100250.44
2022-09-30T03:03:22.777Z,100241.88
2022-09-30T03:03:48.541Z,100263.59
2022-09-30T03:04:15.878Z,100267.13
2022-09-30T03:04:41.358Z,100247.25
2022-09-30T03:05:04.097Z,100261.00
2022-09-30T03:05:27.024Z,100264.53
2022-09-30T03:05:51.226Z,100252.28
2022-09-30T03:06:13.412Z,100256.75
2022-09-30T03:06:35.375Z,100256.25
2022-09-30T03:06:57.366Z,100262.28
2022-09-30T03:07:20.405Z,100231.44
2022-09-30T03:07:42.992Z,100263.41
2022-09-30T03:08:04.823Z,100263.41
2022-09-30T03:08:26.572Z,100264.44
2022-09-30T03:08:48.873Z,100256.34
2022-09-30T03:09:11.562Z,100260.81
2022-09-30T03:09:34.618Z,100248.59
2022-09-30T03:09:57.970Z,100264.63
2022-09-30T03:10:19.589Z,100251.44
2022-09-30T03:10:42.681Z,100261.03
2022-09-30T03:11:05.812Z,100263.69
2022-09-30T03:11:28.882Z,100259.22
2022-09-30T03:11:53.900Z,100263.63
2022-09-30T03:12:34.306Z,100266.28
2022-09-30T03:13:10.425Z,100266.22
2022-09-30T03:14:09.085Z,100261.69
2022-09-30T03:14:44.753Z,100259.38
2022-09-30T03:15:25.687Z,100263.09
2022-09-30T03:16:02.896Z,100261.31
2022-09-30T03:16:37.220Z,100263.16
2022-09-30T03:17:30.132Z,100263.16
2022-09-30T03:18:18.237Z,100269.50
2022-09-30T03:19:00.018Z,100262.03
2022-09-30T03:19:38.588Z,100253.25
2022-09-30T03:20:21.563Z,100271.41
2022-09-30T03:20:57.432Z,100237.59
2022-09-30T03:21:36.457Z,100264.50
2022-09-30T03:22:28.938Z,100261.56
2022-09-30T03:23:10.696Z,100268.34
2022-09-30T03:23:50.852Z,100230.13
2022-09-30T03:24:43.105Z,100253.91
2022-09-30T03:25:19.114Z,100209.63
2022-09-30T03:25:50.220Z,100264.16
2022-09-30T03:26:25.957Z,100255.63
2022-09-30T03:26:56.524Z,100273.00
2022-09-30T03:27:32.403Z,100275.78
2022-09-30T03:28:09.403Z,100267.81
2022-09-30T03:28:36.307Z,100268.88
2022-09-30T03:29:09.517Z,100270.13
2022-09-30T03:29:40.793Z,100237.38
2022-09-30T03:30:06.152Z,100273.97
2022-09-30T03:30:36.056Z,100261.66
2022-09-30T03:31:05.895Z,100266.66
2022-09-30T03:31:37.662Z,100269.81
2022-09-30T03:32:12.601Z,100259.19
2022-09-30T03:32:51.957Z,100266.66
2022-09-30T03:33:23.197Z,100277.09
2022-09-30T03:33:50.107Z,100267.38
2022-09-30T03:34:21.450Z,100268.25
2022-09-30T03:35:00.034Z,100271.94
2022-09-30T03:35:30.889Z,100274.84
2022-09-30T03:36:00.362Z,100260.78
2022-09-30T03:36:29.126Z,100263.56
2022-09-30T03:37:04.418Z,100274.69
2022-09-30T03:37:31.362Z,100278.16
2022-09-30T03:38:05.041Z,100271.94
2022-09-30T03:38:36.888Z,100267.59
2022-09-30T03:39:04.105Z,100251.03
2022-09-30T03:39:29.353Z,100233.94
2022-09-30T03:39:58.753Z,100272.72
2022-09-30T03:40:28.007Z,100277.00
2022-09-30T03:40:57.825Z,100272.59
2022-09-30T03:41:30.930Z,100278.16
2022-09-30T03:41:58.347Z,100277.25
2022-09-30T03:42:27.018Z,100278.91
2022-09-30T03:42:56.761Z,100279.91
2022-09-30T03:43:27.184Z,100284.22
2022-09-30T03:43:52.475Z,100277.09
2022-09-30T03:44:18.959Z,100281.34
2022-09-30T03:44:46.154Z,100280.38
2022-09-30T03:45:12.298Z,100280.56
2022-09-30T03:45:37.600Z,100275.16
2022-09-30T03:46:05.252Z,100283.72
2022-09-30T03:46:34.517Z,100287.09
2022-09-30T03:47:01.075Z,100281.63
2022-09-30T03:47:27.139Z,100278.97
2022-09-30T03:47:55.428Z,100279.72
2022-09-30T03:48:19.339Z,100272.94
2022-09-30T03:48:42.427Z,100282.28
2022-09-30T03:49:09.582Z,100286.59
2022-09-30T03:49:35.912Z,100283.84
2022-09-30T03:50:01.119Z,100290.84
2022-09-30T03:50:25.983Z,100285.38
2022-09-30T03:50:49.246Z,100280.84
2022-09-30T03:51:11.008Z,100289.75
2022-09-30T03:51:37.178Z,100294.16
2022-09-30T03:52:04.942Z,100289.81
2022-09-30T03:52:30.960Z,100294.47
2022-09-30T03:52:52.866Z,100302.66
2022-09-30T03:53:14.580Z,100293.75
2022-09-30T03:53:39.185Z,100288.69
2022-09-30T03:54:01.791Z,100290.47
2022-09-30T03:54:23.938Z,100301.94
2022-09-30T03:54:49.034Z,100287.81
2022-09-30T03:55:11.635Z,100278.84
2022-09-30T03:55:34.688Z,100301.66
2022-09-30T03:55:56.602Z,100298.09
2022-09-30T03:56:25.089Z,100294.56
2022-09-30T03:56:48.439Z,100278.91
2022-09-30T03:57:09.994Z,100292.00
2022-09-30T03:57:31.615Z,100294.56
2022-09-30T03:57:54.439Z,100296.25
2022-09-30T03:58:16.873Z,100305.94
2022-09-30T03:58:43.903Z,100296.16
2022-09-30T03:59:05.551Z,100290.94
2022-09-30T03:59:28.441Z,100288.47
2022-09-30T03:59:50.436Z,100290.22
2022-09-30T04:00:14.157Z,100297.22
2022-09-30T04:00:37.636Z,100297.13
2022-09-30T04:00:59.369Z,100293.53
2022-09-30T04:01:21.499Z,100302.41
2022-09-30T04:01:43.210Z,100292.81
2022-09-30T04:02:07.024Z,100296.34
2022-09-30T04:02:29.317Z,100304.38
2022-09-30T04:02:57.107Z,100295.47
2022-09-30T04:03:21.753Z,100302.44
2022-09-30T04:03:45.160Z,100301.88
2022-09-30T04:04:06.773Z,100298.09
2022-09-30T04:04:28.386Z,100305.06
2022-09-30T04:04:49.952Z,100304.13
2022-09-30T04:05:12.968Z,100308.59
2022-09-30T04:05:34.597Z,100316.50
2022-09-30T04:05:56.169Z,100308.88
2022-09-30T04:06:18.951Z,100302.75
2022-09-30T04:06:40.603Z,100305.44
2022-09-30T04:07:03.554Z,100310.63
2022-09-30T04:07:25.447Z,100306.38
2022-09-30T04:07:47.194Z,100312.31
2022-09-30T04:08:09.156Z,100309.66
2022-09-30T04:08:33.840Z,100312.22
2022-09-30T04:08:55.609Z,100307.84
2022-09-30T04:09:17.266Z,100317.44
2022-09-30T04:09:39.517Z,100312.09
2022-09-30T04:10:02.299Z,100318.34
2022-09-30T04:10:24.104Z,100312.16
2022-09-30T04:10:46.017Z,100298.25
2022-09-30T04:11:07.642Z,100319.28
2022-09-30T04:11:30.172Z,100319.16
2022-09-30T04:11:52.052Z,100322.75
2022-09-30T04:12:13.634Z,100314.78
2022-09-30T04:12:35.324Z,100320.03
2022-09-30T04:12:58.443Z,100323.63
2022-09-30T04:13:20.028Z,100320.16
2022-09-30T04:13:41.698Z,100322.75
2022-09-30T04:14:03.653Z,100328.94
2022-09-30T04:14:26.451Z,100321.00
2022-09-30T04:14:48.280Z,100322.03
2022-09-30T04:15:11.012Z,100332.72
2022-09-30T04:15:32.618Z,100328.25
2022-09-30T04:15:55.652Z,100329.19
2022-09-30T04:16:17.406Z,100321.28
2022-09-30T04:16:39.056Z,100328.13
2022-09-30T04:17:00.716Z,100335.25
2022-09-30T04:17:23.293Z,100330.72
2022-09-30T04:17:44.847Z,100342.09
2022-09-30T04:18:08.147Z,100325.53
2022-09-30T04:18:31.242Z,100329.72
2022-09-30T04:18:54.012Z,100332.47
2022-09-30T04:19:15.628Z,100326.47
2022-09-30T04:19:40.104Z,100330.72
2022-09-30T04:20:01.803Z,100339.56
2022-09-30T04:20:24.347Z,100327.94
2022-09-30T04:20:45.927Z,100332.47
2022-09-30T04:21:09.036Z,100330.66
2022-09-30T04:21:31.614Z,100334.50
2022-09-30T04:21:53.942Z,100340.50
2022-09-30T04:22:15.845Z,100337.84
2022-09-30T04:22:37.539Z,100336.16
2022-09-30T04:23:00.805Z,100332.72
2022-09-30T04:23:22.391Z,100335.38
2022-09-30T04:23:44.049Z,100335.44
2022-09-30T04:24:05.979Z,100336.25
2022-09-30T04:24:28.497Z,100324.00
2022-09-30T04:24:50.138Z,100325.53
2022-09-30T04:25:12.171Z,100335.31
2022-09-30T04:25:33.700Z,100320.34
2022-09-30T04:25:55.609Z,100312.75
2022-09-30T04:26:20.483Z,100330.13
2022-09-30T04:26:42.104Z,100321.53
2022-09-30T04:27:04.179Z,100325.72
2022-09-30T04:27:26.236Z,100326.72
2022-09-30T04:27:48.772Z,100315.94
2022-09-30T04:28:10.372Z,100317.94
2022-09-30T04:28:32.398Z,100328.38
2022-09-30T04:28:54.889Z,100315.94
2022-09-30T04:29:17.927Z,100303.25
2022-09-30T04:29:39.563Z,100326.59
2022-09-30T04:30:02.483Z,100323.06
2022-09-30T04:30:27.205Z,100321.22
2022-09-30T04:30:51.828Z,100330.06
2022-09-30T04:31:14.752Z,100324.75
2022-09-30T04:31:36.582Z,100322.13
2022-09-30T04:31:58.369Z,100323.88
2022-09-30T04:32:22.903Z,100329.25
2022-09-30T04:32:45.712Z,100323.16
2022-09-30T04:33:08.838Z,100323.81
2022-09-30T04:33:31.199Z,100330.25
2022-09-30T04:33:53.795Z,100334.66
2022-09-30T04:34:15.439Z,100320.75
2022-09-30T04:34:37.527Z,100332.25
2022-09-30T04:34:59.085Z,100333.03
2022-09-30T04:35:20.763Z,100330.44
2022-09-30T04:35:43.311Z,100331.38
2022-09-30T04:36:05.975Z,100322.91
2022-09-30T04:36:27.634Z,100335.88
2022-09-30T04:36:49.245Z,100297.84
2022-09-30T04:37:12.078Z,100332.25
2022-09-30T04:37:33.733Z,100342.00
2022-09-30T04:37:55.312Z,100341.09
2022-09-30T04:38:17.018Z,100329.97
2022-09-30T04:38:40.748Z,100336.03
2022-09-30T04:39:04.207Z,100336.88
2022-09-30T04:39:25.780Z,100344.81
2022-09-30T04:39:49.059Z,100342.25
2022-09-30T04:40:12.433Z,100348.38
2022-09-30T04:40:36.450Z,100339.59
2022-09-30T04:40:58.593Z,100337.00
2022-09-30T04:41:22.857Z,100337.75
2022-09-30T04:41:45.411Z,100343.06
2022-09-30T04:42:07.048Z,100333.41
2022-09-30T04:42:28.751Z,100335.34
2022-09-30T04:42:50.325Z,100345.72
2022-09-30T04:43:15.017Z,100348.38
2022-09-30T04:43:36.876Z,100351.16
2022-09-30T04:43:58.421Z,100349.25
2022-09-30T04:44:21.623Z,100346.66
2022-09-30T04:44:43.220Z,100346.59
2022-09-30T04:45:05.555Z,100344.06
2022-09-30T04:45:27.248Z,100353.72
2022-09-30T04:45:51.348Z,100352.91
2022-09-30T04:46:14.778Z,100347.81
2022-09-30T04:46:40.680Z,100350.63
2022-09-30T04:47:03.241Z,100356.00
2022-09-30T04:47:25.165Z,100352.34
2022-09-30T04:47:47.108Z,100350.63
2022-09-30T04:48:10.418Z,100351.69
2022-09-30T04:48:33.236Z,100355.19
2022-09-30T04:48:55.033Z,100351.00
2022-09-30T04:49:16.622Z,100339.59
2022-09-30T04:49:39.180Z,100352.75
2022-09-30T04:50:00.822Z,100356.19
2022-09-30T04:50:24.597Z,100358.13
2022-09-30T04:50:49.247Z,100346.81
2022-09-30T04:51:11.888Z,100357.19
2022-09-30T04:51:35.015Z,100353.81
2022-09-30T04:51:56.623Z,100354.69
2022-09-30T04:52:18.192Z,100353.72
2022-09-30T04:52:43.368Z,100357.53
2022-09-30T04:53:05.269Z,100341.06
2022-09-30T04:53:27.303Z,100345.41
2022-09-30T04:53:49.338Z,100355.97
2022-09-30T04:54:11.896Z,100345.03
2022-09-30T04:54:34.952Z,100354.44
2022-09-30T04:54:58.696Z,100348.38
2022-09-30T04:55:20.709Z,100362.31
2022-09-30T04:55:43.922Z,100357.13
2022-09-30T04:56:06.358Z,100355.53
2022-09-30T04:56:27.998Z,100365.28
2022-09-30T04:56:50.603Z,100360.84
2022-09-30T04:57:13.968Z,100360.78
2022-09-30T04:57:35.676Z,100364.31
2022-09-30T04:57:57.284Z,100366.09
2022-09-30T04:58:18.868Z,100364.41
2022-09-30T04:58:43.883Z,100356.06
2022-09-30T04:59:05.999Z,100370.78
2022-09-30T04:59:29.220Z,100369.00
2022-09-30T04:59:50.860Z,100296.53
2022-09-30T05:00:14.039Z,100367.38